Latest Weather Observations for Melville Water

IDW60801

Issued at 6:05 am WST Sunday 20 April 2014 (issued every 30 minutes, with the page automatically refreshed every 10 minutes)

About weather observations | Map of weather stations | Latest weather observations for WA | Other Formats
Station Details ID: 009091 Name: INNER DOLPHIN PYLON Lat: -31.99 Lon: 115.83 Height: 0.0 m
Data from the previous 72 hours. | See also: Recent months for locations in Western Australia
Date/Time
WST
Temp
°C
App
Temp
°C
Dew
Point
Rel
Hum
%
Delta-T
°C
Wind Press
QNH
hPa
Press
MSL
hPa
Rain
since 9 am
mm
Dir
 
Spd
km/h
Gust
km/h
Spd
kts
Gust
kts
20/06:00am - - - - - SSE 15 20 8 11 - - -
20/05:30am - - - - - SSE 17 20 9 11 - - -
20/05:00am - - - - - SSE 13 15 7 8 - - -
20/04:30am - - - - - SSE 13 17 7 9 - - -
20/04:00am - - - - - S 11 15 6 8 - - -
20/03:30am - - - - - SSE 15 19 8 10 - - -
20/03:00am - - - - - S 13 17 7 9 - - -
20/02:30am - - - - - SSE 9 11 5 6 - - -
20/02:00am - - - - - SE 9 11 5 6 - - -
20/01:30am - - - - - SSE 13 17 7 9 - - -
20/01:00am - - - - - SSE 17 20 9 11 - - -
20/12:30am - - - - - SSE 15 19 8 10 - - -
20/12:00am - - - - - S 15 20 8 11 - - -
 
Date/Time
WST
Temp
°C
App
Temp
°C
Dew
Point
Rel
Hum
%
Delta-T
°C
Wind Press
QNH
hPa
Press
MSL
hPa
Rain
since 9 am
mm
Dir
 
Spd
km/h
Gust
km/h
Spd
kts
Gust
kts
19/11:30pm - - - - - S 11 17 6 9 - - -
19/11:00pm - - - - - S 13 19 7 10 - - -
19/10:30pm - - - - - S 9 13 5 7 - - -
19/10:00pm - - - - - SSW 13 19 7 10 - - -
19/09:30pm - - - - - S 9 17 5 9 - - -
19/09:00pm - - - - - S 13 19 7 10 - - -
19/08:30pm - - - - - S 9 15 5 8 - - -
19/08:00pm - - - - - SSW 17 20 9 11 - - -
19/07:30pm - - - - - SSW 19 22 10 12 - - -
19/07:00pm - - - - - SSW 20 24 11 13 - - -
19/06:30pm - - - - - SSW 24 32 13 17 - - -
19/06:00pm - - - - - SSW 28 35 15 19 - - -
19/05:30pm - - - - - SSW 30 37 16 20 - - -
19/05:00pm - - - - - SSW 33 39 18 21 - - -
19/04:30pm - - - - - SW 32 37 17 20 - - -
19/04:00pm - - - - - SSW 32 37 17 20 - - -
19/03:30pm - - - - - SW 28 33 15 18 - - -
19/03:00pm - - - - - SW 26 32 14 17 - - -
19/02:30pm - - - - - SW 26 30 14 16 - - -
19/02:00pm - - - - - SW 24 30 13 16 - - -
19/01:30pm - - - - - SW 26 32 14 17 - - -
19/01:00pm - - - - - SW 24 32 13 17 - - -
19/12:30pm - - - - - SW 26 32 14 17 - - -
19/12:00pm - - - - - SW 20 24 11 13 - - -
19/11:30am - - - - - SW 20 28 11 15 - - -
19/11:00am - - - - - S 20 28 11 15 - - -
19/10:30am - - - - - SSW 22 28 12 15 - - -
19/10:00am - - - - - SSW 20 26 11 14 - - -
19/09:30am - - - - - SSW 19 24 10 13 - - -
19/09:00am - - - - - S 13 17 7 9 - - -
19/08:30am - - - - - SSW 9 11 5 6 - - -
19/08:00am - - - - - S 9 15 5 8 - - -
19/07:30am - - - - - S 7 13 4 7 - - -
19/07:00am - - - - - S 11 15 6 8 - - -
19/06:30am - - - - - S 11 15 6 8 - - -
19/06:00am - - - - - S 13 15 7 8 - - -
19/05:30am - - - - - S 9 13 5 7 - - -
19/05:00am - - - - - SSE 9 13 5 7 - - -
19/04:30am - - - - - S 13 19 7 10 - - -
19/04:00am - - - - - S 13 17 7 9 - - -
19/03:30am - - - - - S 13 17 7 9 - - -
19/03:00am - - - - - S 15 19 8 10 - - -
19/02:30am - - - - - S 13 17 7 9 - - -
19/02:00am - - - - - S 11 15 6 8 - - -
19/01:30am - - - - - S 11 15 6 8 - - -
19/01:00am - - - - - S 11 15 6 8 - - -
19/12:30am - - - - - S 11 15 6 8 - - -
19/12:00am - - - - - S 17 24 9 13 - - -
 
Date/Time
WST
Temp
°C
App
Temp
°C
Dew
Point
Rel
Hum
%
Delta-T
°C
Wind Press
QNH
hPa
Press
MSL
hPa
Rain
since 9 am
mm
Dir
 
Spd
km/h
Gust
km/h
Spd
kts
Gust
kts
18/11:30pm - - - - - S 20 26 11 14 - - -
18/11:00pm - - - - - S 19 24 10 13 - - -
18/10:30pm - - - - - S 17 20 9 11 - - -
18/10:00pm - - - - - S 19 24 10 13 - - -
18/09:30pm - - - - - S 20 24 11 13 - - -
18/09:00pm - - - - - S 17 24 9 13 - - -
18/08:30pm - - - - - S 17 22 9 12 - - -
18/08:00pm - - - - - SSW 17 22 9 12 - - -
18/07:30pm - - - - - SSW 15 19 8 10 - - -
18/07:00pm - - - - - SSW 17 20 9 11 - - -
18/06:30pm - - - - - SSW 15 20 8 11 - - -
18/06:00pm - - - - - SSW 19 22 10 12 - - -
18/05:30pm - - - - - SSW 24 32 13 17 - - -
18/05:00pm - - - - - SW 26 33 14 18 - - -
18/04:30pm - - - - - SW 28 32 15 17 - - -
18/04:00pm - - - - - SW 24 28 13 15 - - -
18/03:30pm - - - - - SW 22 28 12 15 - - -
18/03:00pm - - - - - WSW 19 24 10 13 - - -
18/02:30pm - - - - - SW 13 19 7 10 - - -
18/02:00pm - - - - - SW 6 7 3 4 - - -
18/01:30pm - - - - - CALM 0 6 0 3 - - -
18/01:00pm - - - - - W 2 4 1 2 - - -
18/12:30pm - - - - - NNE 7 11 4 6 - - -
18/12:00pm - - - - - E 11 17 6 9 - - -
18/11:30am - - - - - E 11 20 6 11 - - -
18/11:00am - - - - - NE 15 17 8 9 - - -
18/10:30am - - - - - ENE 15 22 8 12 - - -
18/10:00am - - - - - E 19 26 10 14 - - -
18/09:30am - - - - - E 24 30 13 16 - - -
18/09:00am - - - - - E 20 26 11 14 - - -
18/08:30am - - - - - E 19 24 10 13 - - -
18/08:00am - - - - - E 19 24 10 13 - - -
18/07:30am - - - - - E 17 22 9 12 - - -
18/07:00am - - - - - E 15 19 8 10 - - -
18/06:30am - - - - - E 17 22 9 12 - - -
18/06:00am - - - - - E 17 22 9 12 - - -
18/05:30am - - - - - E 19 26 10 14 - - -
18/05:00am - - - - - E 17 24 9 13 - - -
18/04:30am - - - - - E 17 24 9 13 - - -
18/04:00am - - - - - E 17 24 9 13 - - -
18/03:30am - - - - - ESE 13 17 7 9 - - -
18/03:00am - - - - - ESE 17 20 9 11 - - -
18/02:30am - - - - - ESE 11 15 6 8 - - -
18/02:00am - - - - - SE 13 17 7 9 - - -
18/01:30am - - - - - SSE 11 17 6 9 - - -
18/01:00am - - - - - SSE 11 17 6 9 - - -
18/12:30am - - - - - S 11 13 6 7 - - -
18/12:00am - - - - - S 9 13 5 7 - - -
 
Date/Time
WST
Temp
°C
App
Temp
°C
Dew
Point
Rel
Hum
%
Delta-T
°C
Wind Press
QNH
hPa
Press
MSL
hPa
Rain
since 9 am
mm
Dir
 
Spd
km/h
Gust
km/h
Spd
kts
Gust
kts
17/11:30pm - - - - - S 9 13 5 7 - - -
17/11:00pm - - - - - S 9 13 5 7 - - -
17/10:30pm - - - - - S 13 19 7 10 - - -
17/10:00pm - - - - - S 9 13 5 7 - - -
17/09:30pm - - - - - S 11 13 6 7 - - -
17/09:00pm - - - - - S 11 17 6 9 - - -
17/08:30pm - - - - - S 15 19 8 10 - - -
17/08:00pm - - - - - S 17 22 9 12 - - -
17/07:30pm - - - - - S 20 28 11 15 - - -
17/07:00pm - - - - - S 20 26 11 14 - - -
17/06:30pm - - - - - SSW 26 32 14 17 - - -
17/06:00pm - - - - - SSW 26 32 14 17 - - -
17/05:30pm - - - - - SSW 26 32 14 17 - - -
17/05:00pm - - - - - SSW 26 33 14 18 - - -
17/04:30pm - - - - - SW 26 32 14 17 - - -
17/04:00pm - - - - - SW 24 32 13 17 - - -
17/03:30pm - - - - - SW 28 32 15 17 - - -
17/03:00pm - - - - - SW 24 28 13 15 - - -
17/02:30pm - - - - - SW 20 28 11 15 - - -
17/02:00pm - - - - - SW 17 28 9 15 - - -
17/01:30pm - - - - - SSW 19 24 10 13 - - -
17/01:00pm - - - - - WSW 19 24 10 13 - - -
17/12:30pm - - - - - WSW 11 19 6 10 - - -
17/12:00pm - - - - - SW 11 17 6 9 - - -
17/11:30am - - - - - WNW 4 6 2 3 - - -
17/11:00am - - - - - CALM 0 2 0 1 - - -
17/10:30am - - - - - ENE 4 4 2 2 - - -
17/10:00am - - - - - SSW 2 6 1 3 - - -
17/09:30am - - - - - ENE 6 7 3 4 - - -
17/09:00am - - - - - ENE 6 7 3 4 - - -
17/08:30am - - - - - ENE 6 9 3 5 - - -
17/08:00am - - - - - ENE 7 9 4 5 - - -
17/07:30am - - - - - ESE 4 9 2 5 - - -
17/07:00am - - - - - E 6 7 3 4 - - -
17/06:30am - - - - - ENE 6 9 3 5 - - -

Other Formats:

Comma delimited format used in spreadsheet applications
http://www.bom.gov.au/fwo/IDW60801/IDW60801.95620.axf

JavaScript Object Notation format (JSON) in row-major order
http://www.bom.gov.au/fwo/IDW60801/IDW60801.95620.json